Terminal Aerodrome Forecast
Issued by NWS

Home | Current Version | Previous Version | Text Only | Print | Product List | Glossary On
Versions: 1 2 3 4 5 6 7 8 9 10 11 12 13 14 15
000
FTUS44 KSJT 182000 AAA
TAFBBD
TAF AMD
KBBD 182008Z 1820/1918 12008KT P6SM VCTS SCT035CB BKN120
      TEMPO 1820/1822 VRB10G20KT 3SM +TSRA BKN015CB
     FM182200 12008KT P6SM VCTS BKN040CB
     FM190200 11005KT P6SM VCSH BKN050
     FM190500 11008KT P6SM SCT050 BKN200
      TEMPO 1911/1915 BKN018=

USA.gov is the U.S. government's official web portal to all federal, state and local government web resources and services.